sensor_id;sensor_type;location;lat;lon;timestamp;P1;durP1;ratioP1;P2;durP2;ratioP2
45043;SDS011;30784;48.490;9.688;2023-07-13T00:01:28;4.30;;;1.23;;
45043;SDS011;30784;48.490;9.688;2023-07-13T00:03:55;3.78;;;1.13;;
45043;SDS011;30784;48.490;9.688;2023-07-13T00:06:24;3.03;;;1.00;;
45043;SDS011;30784;48.490;9.688;2023-07-13T00:08:49;4.35;;;1.17;;
45043;SDS011;30784;48.490;9.688;2023-07-13T00:11:15;3.80;;;1.10;;
45043;SDS011;30784;48.490;9.688;2023-07-13T00:13:42;4.28;;;1.17;;
45043;SDS011;30784;48.490;9.688;2023-07-13T00:16:09;4.88;;;1.17;;
45043;SDS011;30784;48.490;9.688;2023-07-13T00:18:36;3.47;;;1.25;;
45043;SDS011;30784;48.490;9.688;2023-07-13T00:21:02;3.55;;;1.10;;
45043;SDS011;30784;48.490;9.688;2023-07-13T00:23:32;4.63;;;1.30;;
45043;SDS011;30784;48.490;9.688;2023-07-13T00:25:59;4.07;;;1.15;;
45043;SDS011;30784;48.490;9.688;2023-07-13T00:28:25;3.78;;;1.15;;
45043;SDS011;30784;48.490;9.688;2023-07-13T00:30:51;3.85;;;1.13;;
45043;SDS011;30784;48.490;9.688;2023-07-13T00:33:16;4.00;;;1.20;;
45043;SDS011;30784;48.490;9.688;2023-07-13T00:35:42;5.82;;;1.08;;
45043;SDS011;30784;48.490;9.688;2023-07-13T00:38:08;4.18;;;1.30;;
45043;SDS011;30784;48.490;9.688;2023-07-13T00:40:34;4.05;;;1.35;;
45043;SDS011;30784;48.490;9.688;2023-07-13T00:43:00;4.53;;;1.27;;
45043;SDS011;30784;48.490;9.688;2023-07-13T00:47:51;4.93;;;1.20;;
45043;SDS011;30784;48.490;9.688;2023-07-13T00:50:17;4.22;;;1.20;;
45043;SDS011;30784;48.490;9.688;2023-07-13T00:52:45;4.68;;;1.33;;
45043;SDS011;30784;48.490;9.688;2023-07-13T00:55:13;4.10;;;1.27;;
45043;SDS011;30784;48.490;9.688;2023-07-13T00:57:40;4.07;;;1.10;;
45043;SDS011;30784;48.490;9.688;2023-07-13T01:00:07;4.82;;;1.30;;
45043;SDS011;30784;48.490;9.688;2023-07-13T01:02:34;3.97;;;1.20;;
45043;SDS011;30784;48.490;9.688;2023-07-13T01:05:07;4.30;;;1.38;;
45043;SDS011;30784;48.490;9.688;2023-07-13T01:07:35;6.22;;;1.10;;
45043;SDS011;30784;48.490;9.688;2023-07-13T01:10:01;3.47;;;1.08;;
45043;SDS011;30784;48.490;9.688;2023-07-13T01:12:28;3.58;;;1.10;;
45043;SDS011;30784;48.490;9.688;2023-07-13T01:14:58;4.07;;;1.23;;
45043;SDS011;30784;48.490;9.688;2023-07-13T01:17:25;4.38;;;1.30;;
45043;SDS011;30784;48.490;9.688;2023-07-13T01:19:52;2.40;;;0.93;;
45043;SDS011;30784;48.490;9.688;2023-07-13T01:22:18;4.35;;;1.10;;
45043;SDS011;30784;48.490;9.688;2023-07-13T01:24:50;4.38;;;0.98;;
45043;SDS011;30784;48.490;9.688;2023-07-13T01:27:17;3.85;;;0.93;;
45043;SDS011;30784;48.490;9.688;2023-07-13T01:32:14;3.15;;;1.05;;
45043;SDS011;30784;48.490;9.688;2023-07-13T01:34:49;3.95;;;1.13;;
45043;SDS011;30784;48.490;9.688;2023-07-13T01:37:15;3.13;;;0.82;;
45043;SDS011;30784;48.490;9.688;2023-07-13T01:39:41;3.50;;;1.00;;
45043;SDS011;30784;48.490;9.688;2023-07-13T01:42:07;5.03;;;1.08;;
45043;SDS011;30784;48.490;9.688;2023-07-13T01:44:32;3.78;;;0.88;;
45043;SDS011;30784;48.490;9.688;2023-07-13T01:46:58;4.40;;;1.20;;
45043;SDS011;30784;48.490;9.688;2023-07-13T01:49:24;3.80;;;1.10;;
45043;SDS011;30784;48.490;9.688;2023-07-13T01:51:49;3.42;;;1.00;;
45043;SDS011;30784;48.490;9.688;2023-07-13T01:54:15;4.15;;;1.08;;
45043;SDS011;30784;48.490;9.688;2023-07-13T01:56:40;3.13;;;0.82;;
45043;SDS011;30784;48.490;9.688;2023-07-13T01:59:06;4.72;;;1.00;;
45043;SDS011;30784;48.490;9.688;2023-07-13T02:01:33;5.82;;;1.17;;
45043;SDS011;30784;48.490;9.688;2023-07-13T02:03:58;3.88;;;0.90;;
45043;SDS011;30784;48.490;9.688;2023-07-13T02:06:24;5.00;;;1.10;;
45043;SDS011;30784;48.490;9.688;2023-07-13T02:08:49;4.75;;;1.00;;
45043;SDS011;30784;48.490;9.688;2023-07-13T02:11:15;4.00;;;1.02;;
45043;SDS011;30784;48.490;9.688;2023-07-13T02:13:40;2.85;;;1.00;;
45043;SDS011;30784;48.490;9.688;2023-07-13T02:16:06;4.15;;;0.90;;
45043;SDS011;30784;48.490;9.688;2023-07-13T02:18:32;3.75;;;0.90;;
45043;SDS011;30784;48.490;9.688;2023-07-13T02:20:57;3.95;;;1.10;;
45043;SDS011;30784;48.490;9.688;2023-07-13T02:23:23;3.78;;;0.88;;
45043;SDS011;30784;48.490;9.688;2023-07-13T02:25:48;2.92;;;1.00;;
45043;SDS011;30784;48.490;9.688;2023-07-13T02:28:14;3.90;;;1.02;;
45043;SDS011;30784;48.490;9.688;2023-07-13T02:30:40;1.88;;;0.70;;
45043;SDS011;30784;48.490;9.688;2023-07-13T02:33:05;3.85;;;0.90;;
45043;SDS011;30784;48.490;9.688;2023-07-13T02:35:31;3.45;;;0.90;;
45043;SDS011;30784;48.490;9.688;2023-07-13T02:37:56;2.70;;;0.90;;
45043;SDS011;30784;48.490;9.688;2023-07-13T02:40:22;3.75;;;1.10;;
45043;SDS011;30784;48.490;9.688;2023-07-13T02:42:48;2.65;;;0.82;;
45043;SDS011;30784;48.490;9.688;2023-07-13T02:45:13;3.58;;;1.00;;
45043;SDS011;30784;48.490;9.688;2023-07-13T02:47:40;4.18;;;1.05;;
45043;SDS011;30784;48.490;9.688;2023-07-13T02:50:07;3.88;;;0.90;;
45043;SDS011;30784;48.490;9.688;2023-07-13T02:52:33;4.10;;;1.10;;
45043;SDS011;30784;48.490;9.688;2023-07-13T02:54:59;5.53;;;0.90;;
45043;SDS011;30784;48.490;9.688;2023-07-13T02:57:24;4.97;;;1.10;;
45043;SDS011;30784;48.490;9.688;2023-07-13T02:59:50;4.15;;;0.90;;
45043;SDS011;30784;48.490;9.688;2023-07-13T03:02:15;3.97;;;0.77;;
45043;SDS011;30784;48.490;9.688;2023-07-13T03:04:41;4.40;;;1.10;;
45043;SDS011;30784;48.490;9.688;2023-07-13T03:07:06;3.58;;;0.90;;
45043;SDS011;30784;48.490;9.688;2023-07-13T03:09:33;3.80;;;0.90;;
45043;SDS011;30784;48.490;9.688;2023-07-13T03:11:59;3.88;;;1.05;;
45043;SDS011;30784;48.490;9.688;2023-07-13T03:14:25;4.20;;;1.00;;
45043;SDS011;30784;48.490;9.688;2023-07-13T03:16:51;2.83;;;0.80;;
45043;SDS011;30784;48.490;9.688;2023-07-13T03:19:17;4.93;;;1.10;;
45043;SDS011;30784;48.490;9.688;2023-07-13T03:21:43;4.78;;;0.98;;
45043;SDS011;30784;48.490;9.688;2023-07-13T03:24:08;3.05;;;0.88;;
45043;SDS011;30784;48.490;9.688;2023-07-13T03:26:34;4.80;;;0.88;;
45043;SDS011;30784;48.490;9.688;2023-07-13T03:29:00;3.95;;;1.05;;
45043;SDS011;30784;48.490;9.688;2023-07-13T03:31:26;4.53;;;1.13;;
45043;SDS011;30784;48.490;9.688;2023-07-13T03:33:54;3.60;;;1.10;;
45043;SDS011;30784;48.490;9.688;2023-07-13T03:36:21;2.65;;;0.90;;
45043;SDS011;30784;48.490;9.688;2023-07-13T03:38:50;4.47;;;1.10;;
45043;SDS011;30784;48.490;9.688;2023-07-13T03:41:18;5.20;;;1.17;;
45043;SDS011;30784;48.490;9.688;2023-07-13T03:43:44;3.60;;;1.00;;
45043;SDS011;30784;48.490;9.688;2023-07-13T03:49:32;3.55;;;0.98;;
45043;SDS011;30784;48.490;9.688;2023-07-13T03:51:57;4.03;;;1.00;;
45043;SDS011;30784;48.490;9.688;2023-07-13T03:54:23;6.07;;;1.17;;
45043;SDS011;30784;48.490;9.688;2023-07-13T03:56:48;4.55;;;1.10;;
45043;SDS011;30784;48.490;9.688;2023-07-13T03:59:14;5.78;;;1.48;;
45043;SDS011;30784;48.490;9.688;2023-07-13T04:01:40;3.85;;;1.27;;
45043;SDS011;30784;48.490;9.688;2023-07-13T04:04:05;4.57;;;1.30;;
45043;SDS011;30784;48.490;9.688;2023-07-13T04:06:31;5.65;;;1.10;;
45043;SDS011;30784;48.490;9.688;2023-07-13T04:08:58;4.05;;;1.20;;
45043;SDS011;30784;48.490;9.688;2023-07-13T04:11:26;4.55;;;1.20;;
45043;SDS011;30784;48.490;9.688;2023-07-13T04:13:53;4.53;;;1.35;;
45043;SDS011;30784;48.490;9.688;2023-07-13T04:16:19;6.57;;;1.20;;
45043;SDS011;30784;48.490;9.688;2023-07-13T04:18:46;5.10;;;1.27;;
45043;SDS011;30784;48.490;9.688;2023-07-13T04:21:12;3.70;;;1.20;;
45043;SDS011;30784;48.490;9.688;2023-07-13T04:23:38;7.32;;;2.00;;
45043;SDS011;30784;48.490;9.688;2023-07-13T04:26:04;13.80;;;3.20;;
45043;SDS011;30784;48.490;9.688;2023-07-13T04:28:30;12.18;;;3.80;;
45043;SDS011;30784;48.490;9.688;2023-07-13T04:30:55;14.52;;;4.38;;
45043;SDS011;30784;48.490;9.688;2023-07-13T04:33:21;12.82;;;3.80;;
45043;SDS011;30784;48.490;9.688;2023-07-13T04:35:47;9.90;;;2.72;;
45043;SDS011;30784;48.490;9.688;2023-07-13T04:38:14;6.35;;;2.03;;
45043;SDS011;30784;48.490;9.688;2023-07-13T04:40:42;5.22;;;1.67;;
45043;SDS011;30784;48.490;9.688;2023-07-13T04:43:10;4.28;;;1.13;;
45043;SDS011;30784;48.490;9.688;2023-07-13T04:45:35;4.30;;;1.40;;
45043;SDS011;30784;48.490;9.688;2023-07-13T04:48:01;5.97;;;1.45;;
45043;SDS011;30784;48.490;9.688;2023-07-13T04:50:27;4.05;;;1.10;;
45043;SDS011;30784;48.490;9.688;2023-07-13T04:52:52;4.53;;;1.45;;
45043;SDS011;30784;48.490;9.688;2023-07-13T04:55:18;4.22;;;1.30;;
45043;SDS011;30784;48.490;9.688;2023-07-13T04:57:45;5.35;;;1.40;;
45043;SDS011;30784;48.490;9.688;2023-07-13T05:00:11;4.43;;;1.27;;
45043;SDS011;30784;48.490;9.688;2023-07-13T05:02:37;4.68;;;1.30;;
45043;SDS011;30784;48.490;9.688;2023-07-13T05:05:04;5.60;;;1.48;;
45043;SDS011;30784;48.490;9.688;2023-07-13T05:07:31;6.82;;;1.27;;
45043;SDS011;30784;48.490;9.688;2023-07-13T05:09:57;3.88;;;1.10;;
45043;SDS011;30784;48.490;9.688;2023-07-13T05:12:26;4.78;;;1.20;;
45043;SDS011;30784;48.490;9.688;2023-07-13T05:14:52;5.28;;;1.20;;
45043;SDS011;30784;48.490;9.688;2023-07-13T05:17:17;3.63;;;1.00;;
45043;SDS011;30784;48.490;9.688;2023-07-13T05:19:43;4.28;;;1.17;;
45043;SDS011;30784;48.490;9.688;2023-07-13T05:22:09;4.22;;;1.20;;
45043;SDS011;30784;48.490;9.688;2023-07-13T05:24:34;4.82;;;1.38;;
45043;SDS011;30784;48.490;9.688;2023-07-13T05:27:00;4.63;;;1.20;;
45043;SDS011;30784;48.490;9.688;2023-07-13T05:29:26;5.43;;;1.45;;
45043;SDS011;30784;48.490;9.688;2023-07-13T05:31:51;3.80;;;1.02;;
45043;SDS011;30784;48.490;9.688;2023-07-13T05:34:17;4.10;;;1.10;;
45043;SDS011;30784;48.490;9.688;2023-07-13T05:36:43;4.25;;;1.17;;
45043;SDS011;30784;48.490;9.688;2023-07-13T05:39:08;5.80;;;1.42;;
45043;SDS011;30784;48.490;9.688;2023-07-13T05:41:34;4.88;;;1.50;;
45043;SDS011;30784;48.490;9.688;2023-07-13T05:44:00;5.25;;;1.38;;
45043;SDS011;30784;48.490;9.688;2023-07-13T05:46:26;4.38;;;1.38;;
45043;SDS011;30784;48.490;9.688;2023-07-13T05:48:51;4.47;;;1.25;;
45043;SDS011;30784;48.490;9.688;2023-07-13T05:51:17;5.63;;;1.17;;
45043;SDS011;30784;48.490;9.688;2023-07-13T05:53:43;4.65;;;1.50;;
45043;SDS011;30784;48.490;9.688;2023-07-13T05:56:08;4.63;;;1.50;;
45043;SDS011;30784;48.490;9.688;2023-07-13T05:58:34;4.57;;;1.27;;
45043;SDS011;30784;48.490;9.688;2023-07-13T06:01:04;4.85;;;1.42;;
45043;SDS011;30784;48.490;9.688;2023-07-13T06:03:31;6.95;;;1.40;;
45043;SDS011;30784;48.490;9.688;2023-07-13T06:05:57;4.82;;;1.60;;
45043;SDS011;30784;48.490;9.688;2023-07-13T06:08:25;5.18;;;1.50;;
45043;SDS011;30784;48.490;9.688;2023-07-13T06:10:50;5.35;;;1.30;;
45043;SDS011;30784;48.490;9.688;2023-07-13T06:13:16;4.50;;;1.33;;
45043;SDS011;30784;48.490;9.688;2023-07-13T06:15:43;10.02;;;2.63;;
45043;SDS011;30784;48.490;9.688;2023-07-13T06:18:14;6.57;;;2.63;;
45043;SDS011;30784;48.490;9.688;2023-07-13T06:20:39;5.28;;;1.95;;
45043;SDS011;30784;48.490;9.688;2023-07-13T06:23:05;5.53;;;1.60;;
45043;SDS011;30784;48.490;9.688;2023-07-13T06:25:30;4.93;;;1.30;;
45043;SDS011;30784;48.490;9.688;2023-07-13T06:27:56;4.47;;;1.35;;
45043;SDS011;30784;48.490;9.688;2023-07-13T06:30:21;7.63;;;1.50;;
45043;SDS011;30784;48.490;9.688;2023-07-13T06:32:47;5.32;;;1.30;;
45043;SDS011;30784;48.490;9.688;2023-07-13T06:35:12;8.80;;;1.80;;
45043;SDS011;30784;48.490;9.688;2023-07-13T06:37:38;7.18;;;2.08;;
45043;SDS011;30784;48.490;9.688;2023-07-13T06:40:04;5.55;;;1.80;;
45043;SDS011;30784;48.490;9.688;2023-07-13T06:42:31;5.72;;;1.77;;
45043;SDS011;30784;48.490;9.688;2023-07-13T06:44:56;5.25;;;1.50;;
45043;SDS011;30784;48.490;9.688;2023-07-13T06:47:22;5.47;;;1.20;;
45043;SDS011;30784;48.490;9.688;2023-07-13T06:49:47;6.10;;;1.48;;
45043;SDS011;30784;48.490;9.688;2023-07-13T06:52:13;4.40;;;1.40;;
45043;SDS011;30784;48.490;9.688;2023-07-13T06:54:38;3.17;;;1.10;;
45043;SDS011;30784;48.490;9.688;2023-07-13T06:57:04;4.55;;;1.10;;
45043;SDS011;30784;48.490;9.688;2023-07-13T06:59:30;3.35;;;1.10;;
45043;SDS011;30784;48.490;9.688;2023-07-13T07:01:55;3.20;;;1.00;;
45043;SDS011;30784;48.490;9.688;2023-07-13T07:04:21;4.70;;;1.02;;
45043;SDS011;30784;48.490;9.688;2023-07-13T07:06:47;5.20;;;1.40;;
45043;SDS011;30784;48.490;9.688;2023-07-13T07:09:12;2.58;;;0.80;;
45043;SDS011;30784;48.490;9.688;2023-07-13T07:11:38;3.45;;;1.00;;
45043;SDS011;30784;48.490;9.688;2023-07-13T07:14:04;3.22;;;1.00;;
45043;SDS011;30784;48.490;9.688;2023-07-13T07:16:29;4.43;;;1.00;;
45043;SDS011;30784;48.490;9.688;2023-07-13T07:18:55;3.38;;;1.10;;
45043;SDS011;30784;48.490;9.688;2023-07-13T07:21:20;5.03;;;1.10;;
45043;SDS011;30784;48.490;9.688;2023-07-13T07:23:48;3.72;;;1.05;;
45043;SDS011;30784;48.490;9.688;2023-07-13T07:26:13;2.70;;;0.93;;
45043;SDS011;30784;48.490;9.688;2023-07-13T07:28:39;3.58;;;0.80;;
45043;SDS011;30784;48.490;9.688;2023-07-13T07:31:05;3.55;;;0.90;;
45043;SDS011;30784;48.490;9.688;2023-07-13T07:33:32;2.50;;;0.90;;
45043;SDS011;30784;48.490;9.688;2023-07-13T07:35:58;3.05;;;0.80;;
45043;SDS011;30784;48.490;9.688;2023-07-13T07:38:24;3.58;;;0.80;;
45043;SDS011;30784;48.490;9.688;2023-07-13T07:40:49;2.88;;;0.70;;
45043;SDS011;30784;48.490;9.688;2023-07-13T07:43:15;3.10;;;0.70;;
45043;SDS011;30784;48.490;9.688;2023-07-13T07:45:40;2.70;;;0.93;;
45043;SDS011;30784;48.490;9.688;2023-07-13T07:48:06;3.20;;;0.90;;
45043;SDS011;30784;48.490;9.688;2023-07-13T07:50:34;5.90;;;0.90;;
45043;SDS011;30784;48.490;9.688;2023-07-13T07:52:59;2.70;;;0.88;;
45043;SDS011;30784;48.490;9.688;2023-07-13T07:55:27;4.55;;;0.88;;
45043;SDS011;30784;48.490;9.688;2023-07-13T07:57:53;4.15;;;0.82;;
45043;SDS011;30784;48.490;9.688;2023-07-13T08:00:18;4.05;;;0.77;;
45043;SDS011;30784;48.490;9.688;2023-07-13T08:02:44;3.25;;;0.80;;
45043;SDS011;30784;48.490;9.688;2023-07-13T08:05:10;5.20;;;0.77;;
45043;SDS011;30784;48.490;9.688;2023-07-13T08:07:36;3.67;;;0.82;;
45043;SDS011;30784;48.490;9.688;2023-07-13T08:10:03;3.22;;;0.82;;
45043;SDS011;30784;48.490;9.688;2023-07-13T08:12:32;2.60;;;0.80;;
45043;SDS011;30784;48.490;9.688;2023-07-13T08:14:59;4.80;;;0.90;;
45043;SDS011;30784;48.490;9.688;2023-07-13T08:17:25;3.70;;;1.00;;
45043;SDS011;30784;48.490;9.688;2023-07-13T08:19:51;3.15;;;0.90;;
45043;SDS011;30784;48.490;9.688;2023-07-13T08:22:17;2.70;;;0.70;;
45043;SDS011;30784;48.490;9.688;2023-07-13T08:24:42;2.53;;;0.65;;
45043;SDS011;30784;48.490;9.688;2023-07-13T08:27:08;4.07;;;0.93;;
45043;SDS011;30784;48.490;9.688;2023-07-13T08:29:36;5.10;;;1.02;;
45043;SDS011;30784;48.490;9.688;2023-07-13T08:32:02;3.83;;;0.90;;
45043;SDS011;30784;48.490;9.688;2023-07-13T08:34:28;2.50;;;0.70;;
45043;SDS011;30784;48.490;9.688;2023-07-13T08:36:53;3.47;;;0.82;;
45043;SDS011;30784;48.490;9.688;2023-07-13T08:39:19;3.60;;;0.80;;
45043;SDS011;30784;48.490;9.688;2023-07-13T08:41:46;6.38;;;1.13;;
45043;SDS011;30784;48.490;9.688;2023-07-13T08:47:19;2.95;;;0.70;;
45043;SDS011;30784;48.490;9.688;2023-07-13T08:49:47;3.20;;;0.90;;
45043;SDS011;30784;48.490;9.688;2023-07-13T08:52:16;3.90;;;0.80;;
45043;SDS011;30784;48.490;9.688;2023-07-13T08:54:50;4.63;;;0.93;;
45043;SDS011;30784;48.490;9.688;2023-07-13T08:57:18;2.97;;;0.77;;
45043;SDS011;30784;48.490;9.688;2023-07-13T08:59:46;4.15;;;1.08;;
45043;SDS011;30784;48.490;9.688;2023-07-13T09:05:03;4.15;;;1.00;;
45043;SDS011;30784;48.490;9.688;2023-07-13T09:11:06;2.50;;;0.77;;
45043;SDS011;30784;48.490;9.688;2023-07-13T09:16:36;2.78;;;0.80;;
45043;SDS011;30784;48.490;9.688;2023-07-13T09:19:04;5.55;;;0.98;;
45043;SDS011;30784;48.490;9.688;2023-07-13T09:21:33;4.03;;;0.73;;
45043;SDS011;30784;48.490;9.688;2023-07-13T09:27:21;4.93;;;0.88;;
45043;SDS011;30784;48.490;9.688;2023-07-13T09:29:57;3.42;;;0.90;;
45043;SDS011;30784;48.490;9.688;2023-07-13T09:32:29;2.28;;;0.70;;
45043;SDS011;30784;48.490;9.688;2023-07-13T09:34:57;3.75;;;0.82;;
45043;SDS011;30784;48.490;9.688;2023-07-13T09:37:27;4.90;;;1.20;;
45043;SDS011;30784;48.490;9.688;2023-07-13T09:39:55;3.47;;;1.00;;
45043;SDS011;30784;48.490;9.688;2023-07-13T09:42:24;4.07;;;0.95;;
45043;SDS011;30784;48.490;9.688;2023-07-13T09:47:22;3.33;;;0.90;;
45043;SDS011;30784;48.490;9.688;2023-07-13T09:49:58;4.15;;;0.90;;
45043;SDS011;30784;48.490;9.688;2023-07-13T09:52:38;3.00;;;0.80;;
45043;SDS011;30784;48.490;9.688;2023-07-13T09:55:43;4.00;;;0.90;;
45043;SDS011;30784;48.490;9.688;2023-07-13T09:58:19;3.28;;;0.93;;
45043;SDS011;30784;48.490;9.688;2023-07-13T10:00:55;3.00;;;0.70;;
45043;SDS011;30784;48.490;9.688;2023-07-13T10:05:55;3.15;;;0.80;;
45043;SDS011;30784;48.490;9.688;2023-07-13T10:08:35;3.05;;;0.90;;
45043;SDS011;30784;48.490;9.688;2023-07-13T10:11:23;3.97;;;1.00;;
45043;SDS011;30784;48.490;9.688;2023-07-13T10:16:22;4.57;;;1.10;;
45043;SDS011;30784;48.490;9.688;2023-07-13T10:18:51;2.95;;;0.82;;
45043;SDS011;30784;48.490;9.688;2023-07-13T10:21:22;6.32;;;1.45;;
45043;SDS011;30784;48.490;9.688;2023-07-13T10:23:54;4.30;;;1.10;;
45043;SDS011;30784;48.490;9.688;2023-07-13T10:26:25;4.18;;;0.98;;
45043;SDS011;30784;48.490;9.688;2023-07-13T10:28:56;2.83;;;0.80;;
45043;SDS011;30784;48.490;9.688;2023-07-13T10:31:24;3.53;;;1.00;;
45043;SDS011;30784;48.490;9.688;2023-07-13T10:33:50;5.32;;;1.00;;
45043;SDS011;30784;48.490;9.688;2023-07-13T10:36:17;2.55;;;0.82;;
45043;SDS011;30784;48.490;9.688;2023-07-13T10:38:56;2.95;;;0.90;;
45043;SDS011;30784;48.490;9.688;2023-07-13T10:41:24;2.42;;;0.75;;
45043;SDS011;30784;48.490;9.688;2023-07-13T10:43:53;2.83;;;0.68;;
45043;SDS011;30784;48.490;9.688;2023-07-13T10:46:22;3.60;;;1.00;;
45043;SDS011;30784;48.490;9.688;2023-07-13T10:48:55;2.67;;;0.80;;
45043;SDS011;30784;48.490;9.688;2023-07-13T10:51:24;3.60;;;0.90;;
45043;SDS011;30784;48.490;9.688;2023-07-13T10:56:34;3.58;;;0.90;;
45043;SDS011;30784;48.490;9.688;2023-07-13T10:59:01;2.83;;;0.73;;
45043;SDS011;30784;48.490;9.688;2023-07-13T11:01:40;4.57;;;0.90;;
45043;SDS011;30784;48.490;9.688;2023-07-13T11:04:18;3.47;;;0.82;;
45043;SDS011;30784;48.490;9.688;2023-07-13T11:06:45;4.05;;;0.90;;
45043;SDS011;30784;48.490;9.688;2023-07-13T11:12:02;3.03;;;0.80;;
45043;SDS011;30784;48.490;9.688;2023-07-13T11:14:43;2.55;;;0.70;;
45043;SDS011;30784;48.490;9.688;2023-07-13T11:33:30;4.20;;;1.00;;
45043;SDS011;30784;48.490;9.688;2023-07-13T11:36:03;2.53;;;0.90;;
45043;SDS011;30784;48.490;9.688;2023-07-13T11:38:37;3.78;;;0.90;;
45043;SDS011;30784;48.490;9.688;2023-07-13T11:41:06;2.80;;;0.80;;
45043;SDS011;30784;48.490;9.688;2023-07-13T11:43:41;3.17;;;0.90;;
45043;SDS011;30784;48.490;9.688;2023-07-13T11:46:19;4.22;;;0.90;;
45043;SDS011;30784;48.490;9.688;2023-07-13T11:48:47;4.18;;;0.90;;
45043;SDS011;30784;48.490;9.688;2023-07-13T11:51:19;3.30;;;0.88;;
45043;SDS011;30784;48.490;9.688;2023-07-13T11:53:51;1.75;;;0.60;;
45043;SDS011;30784;48.490;9.688;2023-07-13T11:56:18;2.45;;;0.80;;
45043;SDS011;30784;48.490;9.688;2023-07-13T11:58:47;4.03;;;0.80;;
45043;SDS011;30784;48.490;9.688;2023-07-13T12:01:20;2.72;;;0.80;;
45043;SDS011;30784;48.490;9.688;2023-07-13T12:03:51;2.55;;;0.70;;
45043;SDS011;30784;48.490;9.688;2023-07-13T12:06:23;2.70;;;1.00;;
45043;SDS011;30784;48.490;9.688;2023-07-13T12:09:09;3.08;;;0.80;;
45043;SDS011;30784;48.490;9.688;2023-07-13T12:11:45;3.95;;;0.90;;
45043;SDS011;30784;48.490;9.688;2023-07-13T12:14:17;3.85;;;0.88;;
45043;SDS011;30784;48.490;9.688;2023-07-13T12:16:43;3.17;;;0.90;;
45043;SDS011;30784;48.490;9.688;2023-07-13T12:19:17;2.53;;;0.77;;
45043;SDS011;30784;48.490;9.688;2023-07-13T12:21:45;3.08;;;0.90;;
45043;SDS011;30784;48.490;9.688;2023-07-13T12:24:15;3.10;;;0.90;;
45043;SDS011;30784;48.490;9.688;2023-07-13T12:26:43;6.68;;;1.15;;
45043;SDS011;30784;48.490;9.688;2023-07-13T12:29:15;2.28;;;0.60;;
45043;SDS011;30784;48.490;9.688;2023-07-13T12:31:43;3.42;;;0.90;;
45043;SDS011;30784;48.490;9.688;2023-07-13T12:34:11;3.13;;;0.95;;
45043;SDS011;30784;48.490;9.688;2023-07-13T12:36:40;1.95;;;0.75;;
45043;SDS011;30784;48.490;9.688;2023-07-13T12:39:18;4.15;;;0.95;;
45043;SDS011;30784;48.490;9.688;2023-07-13T12:41:49;2.67;;;0.70;;
45043;SDS011;30784;48.490;9.688;2023-07-13T12:44:18;2.33;;;0.80;;
45043;SDS011;30784;48.490;9.688;2023-07-13T12:46:52;4.22;;;1.05;;
45043;SDS011;30784;48.490;9.688;2023-07-13T12:49:24;4.40;;;1.00;;
45043;SDS011;30784;48.490;9.688;2023-07-13T12:51:59;2.67;;;0.80;;
45043;SDS011;30784;48.490;9.688;2023-07-13T12:54:27;2.70;;;0.80;;
45043;SDS011;30784;48.490;9.688;2023-07-13T12:56:54;3.47;;;1.00;;
45043;SDS011;30784;48.490;9.688;2023-07-13T12:59:23;2.13;;;0.60;;
45043;SDS011;30784;48.490;9.688;2023-07-13T13:01:54;3.65;;;1.00;;
45043;SDS011;30784;48.490;9.688;2023-07-13T13:04:19;2.78;;;0.82;;
45043;SDS011;30784;48.490;9.688;2023-07-13T13:06:46;3.17;;;0.90;;
45043;SDS011;30784;48.490;9.688;2023-07-13T13:09:13;2.78;;;0.80;;
45043;SDS011;30784;48.490;9.688;2023-07-13T13:11:41;3.60;;;0.85;;
45043;SDS011;30784;48.490;9.688;2023-07-13T13:14:07;3.78;;;1.00;;
45043;SDS011;30784;48.490;9.688;2023-07-13T13:16:42;3.17;;;0.85;;
45043;SDS011;30784;48.490;9.688;2023-07-13T13:19:15;3.42;;;0.85;;
45043;SDS011;30784;48.490;9.688;2023-07-13T13:21:42;4.20;;;0.90;;
45043;SDS011;30784;48.490;9.688;2023-07-13T13:24:13;3.45;;;0.80;;
45043;SDS011;30784;48.490;9.688;2023-07-13T13:26:40;3.90;;;0.82;;
45043;SDS011;30784;48.490;9.688;2023-07-13T13:29:16;3.60;;;1.08;;
45043;SDS011;30784;48.490;9.688;2023-07-13T13:31:44;2.53;;;0.65;;
45043;SDS011;30784;48.490;9.688;2023-07-13T13:34:11;3.30;;;0.77;;
45043;SDS011;30784;48.490;9.688;2023-07-13T13:36:41;3.83;;;1.00;;
45043;SDS011;30784;48.490;9.688;2023-07-13T13:39:15;3.90;;;0.98;;
45043;SDS011;30784;48.490;9.688;2023-07-13T13:41:47;4.22;;;1.05;;
45043;SDS011;30784;48.490;9.688;2023-07-13T13:44:17;3.28;;;0.75;;
45043;SDS011;30784;48.490;9.688;2023-07-13T13:46:53;3.83;;;1.00;;
45043;SDS011;30784;48.490;9.688;2023-07-13T13:49:24;3.90;;;0.90;;
45043;SDS011;30784;48.490;9.688;2023-07-13T13:51:51;4.10;;;0.90;;
45043;SDS011;30784;48.490;9.688;2023-07-13T13:54:18;4.18;;;1.05;;
45043;SDS011;30784;48.490;9.688;2023-07-13T13:56:46;5.57;;;0.90;;
45043;SDS011;30784;48.490;9.688;2023-07-13T13:59:13;2.72;;;0.80;;
45043;SDS011;30784;48.490;9.688;2023-07-13T14:01:40;4.57;;;0.90;;
45043;SDS011;30784;48.490;9.688;2023-07-13T14:04:13;3.08;;;0.90;;
45043;SDS011;30784;48.490;9.688;2023-07-13T14:06:42;3.75;;;0.95;;
45043;SDS011;30784;48.490;9.688;2023-07-13T14:09:10;2.97;;;0.98;;
45043;SDS011;30784;48.490;9.688;2023-07-13T14:11:37;3.45;;;0.90;;
45043;SDS011;30784;48.490;9.688;2023-07-13T14:14:08;4.43;;;1.00;;
45043;SDS011;30784;48.490;9.688;2023-07-13T14:16:39;3.30;;;0.80;;
45043;SDS011;30784;48.490;9.688;2023-07-13T14:19:07;4.80;;;1.10;;
45043;SDS011;30784;48.490;9.688;2023-07-13T14:21:36;4.00;;;0.90;;
45043;SDS011;30784;48.490;9.688;2023-07-13T14:24:02;4.97;;;1.00;;
45043;SDS011;30784;48.490;9.688;2023-07-13T14:26:28;3.78;;;1.23;;
45043;SDS011;30784;48.490;9.688;2023-07-13T14:28:57;4.60;;;1.15;;
45043;SDS011;30784;48.490;9.688;2023-07-13T14:31:25;2.95;;;0.80;;
45043;SDS011;30784;48.490;9.688;2023-07-13T14:33:53;3.55;;;1.08;;
45043;SDS011;30784;48.490;9.688;2023-07-13T14:36:21;4.18;;;1.20;;
45043;SDS011;30784;48.490;9.688;2023-07-13T14:38:54;4.03;;;1.10;;
45043;SDS011;30784;48.490;9.688;2023-07-13T14:41:21;4.35;;;1.02;;
45043;SDS011;30784;48.490;9.688;2023-07-13T14:43:47;5.22;;;1.00;;
45043;SDS011;30784;48.490;9.688;2023-07-13T14:46:34;3.90;;;0.80;;
45043;SDS011;30784;48.490;9.688;2023-07-13T14:49:12;4.00;;;1.00;;
45043;SDS011;30784;48.490;9.688;2023-07-13T14:51:45;2.60;;;0.82;;
45043;SDS011;30784;48.490;9.688;2023-07-13T14:54:10;4.80;;;0.90;;
45043;SDS011;30784;48.490;9.688;2023-07-13T14:56:36;5.45;;;1.15;;
45043;SDS011;30784;48.490;9.688;2023-07-13T14:59:02;3.33;;;0.70;;
45043;SDS011;30784;48.490;9.688;2023-07-13T15:01:28;2.50;;;0.82;;
45043;SDS011;30784;48.490;9.688;2023-07-13T15:03:55;4.18;;;1.00;;
45043;SDS011;30784;48.490;9.688;2023-07-13T15:06:21;3.50;;;1.00;;
45043;SDS011;30784;48.490;9.688;2023-07-13T15:08:46;4.20;;;1.08;;
45043;SDS011;30784;48.490;9.688;2023-07-13T15:11:12;3.63;;;0.90;;
45043;SDS011;30784;48.490;9.688;2023-07-13T15:13:38;4.70;;;1.00;;
45043;SDS011;30784;48.490;9.688;2023-07-13T15:16:10;6.28;;;1.10;;
45043;SDS011;30784;48.490;9.688;2023-07-13T15:18:43;3.03;;;0.82;;
45043;SDS011;30784;48.490;9.688;2023-07-13T15:21:10;2.85;;;0.90;;
45043;SDS011;30784;48.490;9.688;2023-07-13T15:23:44;4.30;;;0.93;;
45043;SDS011;30784;48.490;9.688;2023-07-13T15:26:12;4.47;;;0.90;;
45043;SDS011;30784;48.490;9.688;2023-07-13T15:28:39;3.85;;;1.10;;
45043;SDS011;30784;48.490;9.688;2023-07-13T15:31:11;3.17;;;0.88;;
45043;SDS011;30784;48.490;9.688;2023-07-13T15:33:44;3.33;;;0.77;;
45043;SDS011;30784;48.490;9.688;2023-07-13T15:36:13;3.45;;;0.93;;
45043;SDS011;30784;48.490;9.688;2023-07-13T15:38:39;2.38;;;0.90;;
45043;SDS011;30784;48.490;9.688;2023-07-13T15:41:10;3.15;;;0.90;;
45043;SDS011;30784;48.490;9.688;2023-07-13T15:43:42;4.28;;;1.00;;
45043;SDS011;30784;48.490;9.688;2023-07-13T15:46:08;5.72;;;1.00;;